Time;durP1;ratioP1;P1;durP2;ratioP2;P2;SDS_P1;SDS_P2;PMS_P1;PMS_P2;Temp;Humidity;BMP_temperature;BMP_pressure;BME280_temperature;BME280_humidity;BME280_pressure;Samples;Min_cycle;Max_cycle;Signal;HPM_P1;HPM_P2
2022/04/10 00:00:30;;;;;;;;;;;21.80;27.30;;;;;;464493;256;974;-64
2022/04/10 00:02:31;;;;;;;;;;;21.80;27.20;;;;;;464475;256;1147;-63
2022/04/10 00:04:32;;;;;;;;;;;21.90;27.20;;;;;;464621;256;1133;-64
2022/04/10 00:06:33;;;;;;;;;;;21.80;27.10;;;;;;464509;256;1327;-64
2022/04/10 00:08:35;;;;;;;;;;;21.80;27.20;;;;;;464731;256;2198;-64
2022/04/10 00:10:36;;;;;;;;;;;21.90;27.10;;;;;;464483;256;1338;-64
2022/04/10 00:12:37;;;;;;;;;;;21.90;27.20;;;;;;464615;256;1177;-64
2022/04/10 00:14:39;;;;;;;;;;;21.90;27.10;;;;;;464503;256;1269;-64
2022/04/10 00:16:40;;;;;;;;;;;21.80;27.10;;;;;;464420;256;1229;-64
2022/04/10 00:18:41;;;;;;;;;;;21.90;27.20;;;;;;464493;256;1008;-64
2022/04/10 00:20:43;;;;;;;;;;;21.80;27.10;;;;;;464542;256;1187;-64
2022/04/10 00:22:44;;;;;;;;;;;21.90;27.10;;;;;;464539;256;1105;-64
2022/04/10 00:24:46;;;;;;;;;;;21.90;27.00;;;;;;464644;256;1068;-64
2022/04/10 00:26:47;;;;;;;;;;;21.90;27.10;;;;;;464513;256;1186;-64
2022/04/10 00:28:48;;;;;;;;;;;21.90;27.10;;;;;;464459;256;2131;-65
2022/04/10 00:30:50;;;;;;;;;;;22.00;26.90;;;;;;464549;256;1060;-64
2022/04/10 00:32:52;;;;;;;;;;;21.90;27.00;;;;;;464496;256;1115;-64
2022/04/10 00:34:52;;;;;;;;;;;21.90;27.10;;;;;;464496;257;1507;-64
2022/04/10 00:36:54;;;;;;;;;;;21.80;27.00;;;;;;464509;256;1222;-64
2022/04/10 00:38:55;;;;;;;;;;;21.90;27.00;;;;;;464515;256;1172;-64
2022/04/10 00:40:56;;;;;;;;;;;21.80;27.10;;;;;;464488;256;1110;-64
2022/04/10 00:42:58;;;;;;;;;;;21.90;27.00;;;;;;464455;256;1239;-64
2022/04/10 00:44:59;;;;;;;;;;;21.90;27.00;;;;;;464588;256;1077;-64
2022/04/10 00:47:00;;;;;;;;;;;21.80;27.10;;;;;;464474;256;1193;-64
2022/04/10 00:49:02;;;;;;;;;;;21.80;27.10;;;;;;464494;256;2197;-64
2022/04/10 00:53:22;;;;;;;;;;;21.90;27.00;;;;;;464462;257;1041;-64
2022/04/10 00:55:24;;;;;;;;;;;21.90;27.10;;;;;;464519;256;981;-64
2022/04/10 00:57:25;;;;;;;;;;;21.90;27.00;;;;;;464451;256;1223;-64
2022/04/10 00:59:26;;;;;;;;;;;21.80;27.10;;;;;;464567;256;1067;-64
2022/04/10 01:01:27;;;;;;;;;;;21.80;27.10;;;;;;464456;256;1127;-64
2022/04/10 01:03:29;;;;;;;;;;;21.80;27.00;;;;;;464551;256;1121;-64
2022/04/10 01:05:30;;;;;;;;;;;21.80;27.10;;;;;;464468;256;1217;-64
2022/04/10 01:07:31;;;;;;;;;;;21.90;27.00;;;;;;464545;256;1166;-64
2022/04/10 01:09:33;;;;;;;;;;;21.80;27.10;;;;;;464542;256;2206;-64
2022/04/10 01:11:34;;;;;;;;;;;21.90;27.00;;;;;;464444;256;1384;-64
2022/04/10 01:13:35;;;;;;;;;;;21.90;27.00;;;;;;464729;256;959;-64
2022/04/10 01:15:37;;;;;;;;;;;21.70;27.10;;;;;;464539;256;1128;-64
2022/04/10 01:17:38;;;;;;;;;;;21.70;27.10;;;;;;464508;256;1109;-64
2022/04/10 01:19:39;;;;;;;;;;;21.80;27.10;;;;;;464628;256;1061;-65
2022/04/10 01:21:42;;;;;;;;;;;21.80;27.00;;;;;;464437;256;1326;-64
2022/04/10 01:23:43;;;;;;;;;;;21.80;27.00;;;;;;464466;257;1412;-64
2022/04/10 01:25:44;;;;;;;;;;;21.90;27.00;;;;;;464502;256;1000;-64
2022/04/10 01:27:45;;;;;;;;;;;21.80;27.00;;;;;;464478;256;1426;-64
2022/04/10 01:29:46;;;;;;;;;;;21.80;27.00;;;;;;464512;256;2147;-64
2022/04/10 01:31:47;;;;;;;;;;;21.90;27.00;;;;;;464463;256;1167;-64
2022/04/10 01:33:49;;;;;;;;;;;21.80;26.90;;;;;;464547;256;1086;-64
2022/04/10 01:35:50;;;;;;;;;;;21.90;26.90;;;;;;464427;256;1156;-64
2022/04/10 01:37:51;;;;;;;;;;;21.90;26.90;;;;;;464605;256;992;-64
2022/04/10 01:39:53;;;;;;;;;;;22.00;26.90;;;;;;464521;256;1003;-64
2022/04/10 01:41:54;;;;;;;;;;;21.80;26.90;;;;;;464504;256;1235;-64
2022/04/10 01:43:55;;;;;;;;;;;21.90;26.80;;;;;;464486;256;1098;-64
2022/04/10 01:45:57;;;;;;;;;;;21.90;26.90;;;;;;464629;256;1142;-64
2022/04/10 01:47:58;;;;;;;;;;;21.90;27.00;;;;;;464645;256;1077;-64
2022/04/10 01:49:59;;;;;;;;;;;21.80;26.90;;;;;;464525;256;2202;-64
2022/04/10 01:52:02;;;;;;;;;;;21.80;27.00;;;;;;464492;256;1307;-64
2022/04/10 01:54:04;;;;;;;;;;;21.90;26.90;;;;;;464483;257;1391;-64
2022/04/10 01:56:05;;;;;;;;;;;22.00;26.80;;;;;;464586;256;1008;-64
2022/04/10 01:58:06;;;;;;;;;;;21.90;26.90;;;;;;464571;256;1069;-64
2022/04/10 02:00:08;;;;;;;;;;;21.90;26.90;;;;;;464527;256;985;-64
2022/04/10 02:02:09;;;;;;;;;;;21.90;26.90;;;;;;464472;256;1221;-64
2022/04/10 02:04:10;;;;;;;;;;;21.90;26.80;;;;;;464496;256;1079;-63
2022/04/10 02:06:12;;;;;;;;;;;21.90;26.90;;;;;;464455;256;1169;-64
2022/04/10 02:08:13;;;;;;;;;;;21.90;26.80;;;;;;464571;256;2275;-64
2022/04/10 02:10:15;;;;;;;;;;;21.90;26.80;;;;;;464510;256;983;-64
2022/04/10 02:12:16;;;;;;;;;;;22.00;26.80;;;;;;464516;256;1186;-64
2022/04/10 02:14:18;;;;;;;;;;;22.00;26.80;;;;;;464484;256;1010;-64
2022/04/10 02:16:19;;;;;;;;;;;22.00;26.70;;;;;;464511;256;1203;-64
2022/04/10 02:18:20;;;;;;;;;;;21.90;26.80;;;;;;464539;256;1071;-64
2022/04/10 02:20:21;;;;;;;;;;;21.90;26.80;;;;;;464607;256;1219;-64
2022/04/10 02:22:23;;;;;;;;;;;21.90;26.80;;;;;;464450;256;1187;-64
2022/04/10 02:24:24;;;;;;;;;;;22.00;26.80;;;;;;464600;256;1088;-64
2022/04/10 02:26:25;;;;;;;;;;;22.00;26.80;;;;;;464446;256;1255;-64
2022/04/10 02:28:27;;;;;;;;;;;21.90;26.80;;;;;;464517;256;2123;-64
2022/04/10 02:30:28;;;;;;;;;;;22.10;26.60;;;;;;464533;256;1215;-64
2022/04/10 02:32:30;;;;;;;;;;;22.00;26.70;;;;;;464491;256;1174;-64
2022/04/10 02:34:31;;;;;;;;;;;22.00;26.80;;;;;;464513;256;1402;-64
2022/04/10 02:36:32;;;;;;;;;;;21.90;26.80;;;;;;464467;256;1163;-65
2022/04/10 02:38:33;;;;;;;;;;;21.90;26.80;;;;;;464613;256;1127;-64
2022/04/10 02:40:35;;;;;;;;;;;21.90;26.90;;;;;;464484;256;1036;-64
2022/04/10 02:42:36;;;;;;;;;;;21.90;26.80;;;;;;464413;256;1182;-64
2022/04/10 02:44:38;;;;;;;;;;;21.90;26.90;;;;;;464504;256;1027;-64
2022/04/10 02:46:39;;;;;;;;;;;21.90;26.90;;;;;;464413;256;1312;-64
2022/04/10 02:48:40;;;;;;;;;;;21.90;26.90;;;;;;464506;256;2198;-64
2022/04/10 02:50:42;;;;;;;;;;;21.90;26.90;;;;;;464475;256;989;-64
2022/04/10 02:52:43;;;;;;;;;;;21.80;26.90;;;;;;464401;257;1135;-64
2022/04/10 02:54:44;;;;;;;;;;;21.90;26.90;;;;;;464477;256;1069;-64
2022/04/10 02:56:46;;;;;;;;;;;21.90;26.90;;;;;;464418;256;1327;-64
2022/04/10 02:58:47;;;;;;;;;;;21.90;26.90;;;;;;464587;256;1034;-64
2022/04/10 03:00:48;;;;;;;;;;;22.00;26.90;;;;;;464478;256;1380;-64
2022/04/10 03:02:50;;;;;;;;;;;21.90;26.90;;;;;;464586;256;1061;-64
2022/04/10 03:04:51;;;;;;;;;;;22.00;26.90;;;;;;464592;256;1008;-64
2022/04/10 03:06:52;;;;;;;;;;;22.00;26.90;;;;;;464456;256;1217;-64
2022/04/10 03:08:54;;;;;;;;;;;22.00;26.90;;;;;;464612;256;2207;-64
2022/04/10 03:10:57;;;;;;;;;;;21.90;27.00;;;;;;464503;256;1185;-64
2022/04/10 03:12:56;;;;;;;;;;;22.00;26.90;;;;;;464369;257;1508;-64
2022/04/10 03:14:57;;;;;;;;;;;22.00;26.90;;;;;;464610;256;1046;-64
2022/04/10 03:16:59;;;;;;;;;;;21.90;27.00;;;;;;464450;256;1141;-64
2022/04/10 03:19:00;;;;;;;;;;;21.80;27.10;;;;;;464568;256;1084;-64
2022/04/10 03:21:01;;;;;;;;;;;21.90;27.00;;;;;;464514;256;1209;-64
2022/04/10 03:23:08;;;;;;;;;;;21.90;27.00;;;;;;464507;256;1153;-64
2022/04/10 03:25:04;;;;;;;;;;;21.90;27.00;;;;;;464146;257;1598;-64
2022/04/10 03:27:05;;;;;;;;;;;21.90;27.10;;;;;;464542;256;1219;-64
2022/04/10 03:29:07;;;;;;;;;;;21.90;27.10;;;;;;464494;256;2143;-64
2022/04/10 03:31:08;;;;;;;;;;;22.00;27.10;;;;;;464534;256;1135;-64
2022/04/10 03:33:09;;;;;;;;;;;22.00;27.00;;;;;;464529;256;1046;-64
2022/04/10 03:35:11;;;;;;;;;;;21.90;27.10;;;;;;464654;256;1012;-64
2022/04/10 03:37:12;;;;;;;;;;;22.00;27.10;;;;;;464579;256;1233;-64
2022/04/10 03:39:13;;;;;;;;;;;22.00;27.10;;;;;;464585;256;1088;-64
2022/04/10 03:41:15;;;;;;;;;;;22.00;27.20;;;;;;464534;256;1143;-64
2022/04/10 03:43:16;;;;;;;;;;;22.00;27.10;;;;;;464486;256;1085;-64
2022/04/10 03:45:17;;;;;;;;;;;22.00;27.20;;;;;;464525;256;982;-64
2022/04/10 03:47:19;;;;;;;;;;;21.90;27.20;;;;;;464496;256;1116;-64
2022/04/10 03:49:20;;;;;;;;;;;21.80;27.30;;;;;;464534;256;2210;-64
2022/04/10 03:51:21;;;;;;;;;;;21.90;27.30;;;;;;464533;256;1137;-64
2022/04/10 03:53:23;;;;;;;;;;;21.80;27.40;;;;;;464581;256;1162;-64
2022/04/10 03:55:24;;;;;;;;;;;21.80;27.40;;;;;;464613;256;1080;-64
2022/04/10 03:57:25;;;;;;;;;;;21.90;27.30;;;;;;464498;256;1165;-64
2022/04/10 03:59:27;;;;;;;;;;;21.90;27.40;;;;;;464624;256;1140;-64
2022/04/10 04:01:28;;;;;;;;;;;21.90;27.40;;;;;;464473;256;1314;-64
2022/04/10 04:03:29;;;;;;;;;;;21.90;27.40;;;;;;464565;256;1081;-64
2022/04/10 04:05:31;;;;;;;;;;;22.00;27.40;;;;;;464828;256;1189;-64
2022/04/10 04:07:32;;;;;;;;;;;21.90;27.40;;;;;;464425;256;1293;-64
2022/04/10 04:09:33;;;;;;;;;;;22.00;27.40;;;;;;464547;256;2136;-64
2022/04/10 04:11:34;;;;;;;;;;;22.00;27.30;;;;;;464481;256;1187;-64
2022/04/10 04:13:36;;;;;;;;;;;22.00;27.40;;;;;;464805;256;1138;-64
2022/04/10 04:15:37;;;;;;;;;;;22.00;27.40;;;;;;464563;256;1248;-64
2022/04/10 04:17:38;;;;;;;;;;;22.00;27.40;;;;;;464719;256;1203;-64
2022/04/10 04:19:40;;;;;;;;;;;21.80;27.50;;;;;;464522;256;1054;-64
2022/04/10 04:21:41;;;;;;;;;;;22.00;27.50;;;;;;464492;256;1207;-64
2022/04/10 04:23:43;;;;;;;;;;;22.00;27.40;;;;;;464501;256;1193;-65
2022/04/10 04:25:44;;;;;;;;;;;22.10;27.40;;;;;;464453;256;1232;-64
2022/04/10 04:27:45;;;;;;;;;;;22.10;27.30;;;;;;464459;256;1180;-64
2022/04/10 04:29:46;;;;;;;;;;;22.00;27.40;;;;;;464545;256;2202;-64
2022/04/10 04:31:48;;;;;;;;;;;22.20;27.30;;;;;;464481;256;1163;-64
2022/04/10 04:33:49;;;;;;;;;;;22.10;27.30;;;;;;464643;256;1052;-64
2022/04/10 04:35:50;;;;;;;;;;;22.00;27.30;;;;;;464509;256;1211;-64
2022/04/10 04:37:52;;;;;;;;;;;22.00;27.50;;;;;;464484;256;1181;-64
2022/04/10 04:39:53;;;;;;;;;;;21.80;27.60;;;;;;464519;256;1201;-64
2022/04/10 04:41:54;;;;;;;;;;;21.90;27.60;;;;;;464443;256;1250;-64
2022/04/10 04:43:56;;;;;;;;;;;22.00;27.40;;;;;;464521;256;1098;-64
2022/04/10 04:45:57;;;;;;;;;;;22.00;27.50;;;;;;464657;256;1290;-64
2022/04/10 04:47:58;;;;;;;;;;;22.00;27.50;;;;;;464530;256;1160;-64
2022/04/10 04:50:00;;;;;;;;;;;22.00;27.50;;;;;;464709;256;2198;-64
2022/04/10 04:52:01;;;;;;;;;;;22.10;27.40;;;;;;464442;256;1259;-65
2022/04/10 04:54:02;;;;;;;;;;;22.00;27.50;;;;;;464629;256;1190;-65
2022/04/10 04:56:04;;;;;;;;;;;22.00;27.50;;;;;;464443;256;1232;-65
2022/04/10 04:58:05;;;;;;;;;;;22.00;27.50;;;;;;464510;256;1060;-64
2022/04/10 05:00:06;;;;;;;;;;;22.00;27.50;;;;;;464524;256;1149;-64
2022/04/10 05:02:08;;;;;;;;;;;22.00;27.60;;;;;;464481;256;1247;-64
2022/04/10 05:04:09;;;;;;;;;;;22.00;27.50;;;;;;464465;257;1440;-65
2022/04/10 05:06:10;;;;;;;;;;;21.90;27.50;;;;;;464466;256;1233;-64
2022/04/10 05:08:11;;;;;;;;;;;22.00;27.50;;;;;;464552;256;1183;-64
2022/04/10 05:10:13;;;;;;;;;;;22.00;27.60;;;;;;464474;256;2214;-64
2022/04/10 05:12:14;;;;;;;;;;;22.00;27.60;;;;;;464399;256;1142;-64
2022/04/10 05:14:15;;;;;;;;;;;22.00;27.50;;;;;;464522;256;1166;-65
2022/04/10 05:16:17;;;;;;;;;;;22.00;27.60;;;;;;464432;256;1220;-64
2022/04/10 05:18:19;;;;;;;;;;;22.00;27.60;;;;;;464366;256;1206;-64
2022/04/10 05:20:20;;;;;;;;;;;22.00;27.50;;;;;;464376;256;1423;-64
2022/04/10 05:22:21;;;;;;;;;;;22.00;27.60;;;;;;464413;256;1180;-64
2022/04/10 05:24:23;;;;;;;;;;;22.00;27.70;;;;;;464382;256;1153;-64
2022/04/10 05:26:24;;;;;;;;;;;22.00;27.50;;;;;;464377;256;1163;-64
2022/04/10 05:28:25;;;;;;;;;;;21.90;27.70;;;;;;464246;256;1171;-64
2022/04/10 05:30:27;;;;;;;;;;;21.90;27.70;;;;;;464452;256;2140;-64
2022/04/10 05:32:28;;;;;;;;;;;21.90;27.70;;;;;;464344;256;1204;-64
2022/04/10 05:34:29;;;;;;;;;;;22.00;27.60;;;;;;464343;256;1212;-64
2022/04/10 05:36:30;;;;;;;;;;;21.90;27.70;;;;;;464379;256;1143;-64
2022/04/10 05:38:32;;;;;;;;;;;21.80;27.80;;;;;;464376;256;1521;-64
2022/04/10 05:40:33;;;;;;;;;;;21.80;27.80;;;;;;464414;256;1345;-64
2022/04/10 05:42:34;;;;;;;;;;;21.90;27.70;;;;;;464435;256;1247;-64
2022/04/10 05:44:36;;;;;;;;;;;21.90;27.80;;;;;;464518;256;1129;-64
2022/04/10 05:46:38;;;;;;;;;;;21.90;27.80;;;;;;464415;256;1130;-64
2022/04/10 05:48:38;;;;;;;;;;;21.90;27.80;;;;;;464543;256;1384;-64
2022/04/10 05:50:40;;;;;;;;;;;21.90;27.80;;;;;;464473;256;2209;-64
2022/04/10 05:52:41;;;;;;;;;;;21.80;27.90;;;;;;464463;256;1340;-64
2022/04/10 05:54:42;;;;;;;;;;;21.80;27.90;;;;;;464515;256;1212;-64
2022/04/10 05:56:44;;;;;;;;;;;21.80;27.90;;;;;;464469;256;1253;-64
2022/04/10 05:58:45;;;;;;;;;;;21.80;27.90;;;;;;464599;256;978;-64
2022/04/10 06:00:46;;;;;;;;;;;21.80;28.00;;;;;;464439;256;1225;-64
2022/04/10 06:02:48;;;;;;;;;;;21.80;27.90;;;;;;464574;256;1115;-64
2022/04/10 06:04:49;;;;;;;;;;;21.90;27.90;;;;;;464518;256;974;-64
2022/04/10 06:06:50;;;;;;;;;;;21.90;27.80;;;;;;464383;256;1590;-64
2022/04/10 06:08:52;;;;;;;;;;;21.80;27.90;;;;;;464499;256;1202;-64
2022/04/10 06:10:53;;;;;;;;;;;21.80;28.00;;;;;;464520;256;2151;-64
2022/04/10 06:12:54;;;;;;;;;;;21.80;28.00;;;;;;464531;256;1062;-64
2022/04/10 06:14:56;;;;;;;;;;;21.80;28.00;;;;;;464515;256;1064;-64
2022/04/10 06:16:57;;;;;;;;;;;21.80;27.90;;;;;;464397;256;1151;-64
2022/04/10 06:18:59;;;;;;;;;;;21.80;27.90;;;;;;464606;256;1074;-64
2022/04/10 06:21:00;;;;;;;;;;;21.90;27.90;;;;;;464445;256;1239;-64
2022/04/10 06:23:01;;;;;;;;;;;21.90;28.00;;;;;;464482;256;1019;-64
2022/04/10 06:25:03;;;;;;;;;;;21.80;28.00;;;;;;464655;256;1174;-64
2022/04/10 06:27:04;;;;;;;;;;;21.80;28.00;;;;;;464569;256;1086;-64
2022/04/10 06:29:05;;;;;;;;;;;21.90;27.90;;;;;;464585;256;1105;-64
2022/04/10 06:31:07;;;;;;;;;;;22.00;27.80;;;;;;464578;256;2198;-64
2022/04/10 06:33:08;;;;;;;;;;;21.90;27.90;;;;;;464528;256;1071;-64
2022/04/10 06:35:09;;;;;;;;;;;21.90;28.00;;;;;;464557;256;1044;-64
2022/04/10 06:37:12;;;;;;;;;;;21.80;28.00;;;;;;464479;256;1249;-64
2022/04/10 06:39:12;;;;;;;;;;;21.90;28.00;;;;;;464419;256;1472;-64
2022/04/10 06:41:13;;;;;;;;;;;21.90;28.00;;;;;;464430;256;1173;-64
2022/04/10 06:43:14;;;;;;;;;;;21.90;28.00;;;;;;464530;256;1173;-64
2022/04/10 06:45:16;;;;;;;;;;;21.90;28.00;;;;;;464690;256;1005;-64
2022/04/10 06:47:17;;;;;;;;;;;21.80;28.00;;;;;;464426;256;1697;-64
2022/04/10 06:49:19;;;;;;;;;;;21.90;28.00;;;;;;464563;256;992;-64
2022/04/10 06:51:21;;;;;;;;;;;21.80;28.10;;;;;;464454;256;2195;-64
2022/04/10 06:53:21;;;;;;;;;;;21.80;28.10;;;;;;464441;256;1606;-64
2022/04/10 06:55:22;;;;;;;;;;;21.80;28.10;;;;;;464499;256;1215;-64
2022/04/10 06:57:24;;;;;;;;;;;21.90;28.00;;;;;;464479;256;1144;-64
2022/04/10 06:59:25;;;;;;;;;;;21.90;28.00;;;;;;464502;256;1038;-64
2022/04/10 07:01:26;;;;;;;;;;;21.90;28.00;;;;;;464517;256;1154;-65
2022/04/10 07:03:28;;;;;;;;;;;21.80;28.00;;;;;;464749;256;1068;-64
2022/04/10 07:05:29;;;;;;;;;;;21.80;28.00;;;;;;464552;256;1092;-64
2022/04/10 07:07:30;;;;;;;;;;;21.90;28.00;;;;;;464535;256;1190;-64
2022/04/10 07:09:32;;;;;;;;;;;21.90;28.00;;;;;;464531;256;1226;-64
2022/04/10 07:11:33;;;;;;;;;;;21.90;28.10;;;;;;464509;256;2134;-64
2022/04/10 07:13:34;;;;;;;;;;;21.90;28.20;;;;;;464535;256;1067;-64
2022/04/10 07:15:36;;;;;;;;;;;21.90;28.10;;;;;;464521;256;1055;-64
2022/04/10 07:17:37;;;;;;;;;;;21.90;28.10;;;;;;464451;256;1240;-64
2022/04/10 07:19:38;;;;;;;;;;;21.90;28.20;;;;;;464504;256;1113;-64
2022/04/10 07:23:59;;;;;;;;;;;21.90;28.10;;;;;;464563;257;1028;-64
2022/04/10 07:26:00;;;;;;;;;;;21.80;28.20;;;;;;464516;256;1271;-64
2022/04/10 07:28:01;;;;;;;;;;;21.90;28.10;;;;;;464476;256;1213;-64
2022/04/10 07:30:03;;;;;;;;;;;22.00;28.00;;;;;;464504;256;1001;-64
2022/04/10 07:32:05;;;;;;;;;;;21.90;28.10;;;;;;464458;256;2133;-63
2022/04/10 07:34:06;;;;;;;;;;;21.90;28.10;;;;;;464610;256;1017;-64
2022/04/10 07:36:07;;;;;;;;;;;21.90;28.00;;;;;;464508;256;1211;-64
2022/04/10 07:38:10;;;;;;;;;;;21.90;28.00;;;;;;464481;256;1149;-64
2022/04/10 07:40:10;;;;;;;;;;;21.80;28.10;;;;;;464443;257;1594;-64
2022/04/10 07:42:11;;;;;;;;;;;21.90;28.10;;;;;;464437;256;1360;-64
2022/04/10 07:44:12;;;;;;;;;;;22.00;28.10;;;;;;464542;256;1124;-65
2022/04/10 07:48:33;;;;;;;;;;;21.90;28.10;;;;;;464437;257;990;-64
2022/04/10 07:50:34;;;;;;;;;;;21.90;28.10;;;;;;464525;256;2151;-64
2022/04/10 07:52:35;;;;;;;;;;;21.90;28.10;;;;;;464495;256;1073;-64
2022/04/10 07:54:37;;;;;;;;;;;21.90;28.20;;;;;;464511;256;1119;-64
2022/04/10 07:56:38;;;;;;;;;;;21.90;28.10;;;;;;464442;256;1202;-65
2022/04/10 07:58:39;;;;;;;;;;;22.00;28.10;;;;;;464682;256;1092;-64
2022/04/10 08:00:41;;;;;;;;;;;22.00;28.00;;;;;;464482;256;1222;-64
2022/04/10 08:02:42;;;;;;;;;;;22.00;28.00;;;;;;464442;256;1184;-64
2022/04/10 08:04:43;;;;;;;;;;;21.90;28.10;;;;;;464528;256;1100;-64
2022/04/10 08:06:45;;;;;;;;;;;21.90;28.10;;;;;;464456;256;1244;-64
2022/04/10 08:08:46;;;;;;;;;;;21.90;28.00;;;;;;464676;256;1068;-64
2022/04/10 08:10:47;;;;;;;;;;;21.90;28.00;;;;;;464423;256;2206;-64
2022/04/10 08:12:49;;;;;;;;;;;22.00;27.90;;;;;;464423;256;1201;-64
2022/04/10 08:14:50;;;;;;;;;;;21.90;27.90;;;;;;464506;256;1010;-63
2022/04/10 08:16:51;;;;;;;;;;;21.90;27.90;;;;;;464573;256;1245;-64
2022/04/10 08:18:53;;;;;;;;;;;21.90;27.80;;;;;;464513;256;1083;-64
2022/04/10 08:20:54;;;;;;;;;;;22.00;27.80;;;;;;464485;256;1334;-64
2022/04/10 08:22:59;;;;;;;;;;;21.90;27.80;;;;;;464660;256;1029;-64
2022/04/10 08:24:57;;;;;;;;;;;21.90;27.80;;;;;;464339;257;1433;-66
2022/04/10 08:26:59;;;;;;;;;;;21.90;27.80;;;;;;464443;257;1442;-64
2022/04/10 08:28:59;;;;;;;;;;;21.90;27.80;;;;;;464498;256;1254;-64
2022/04/10 08:31:01;;;;;;;;;;;22.00;27.50;;;;;;464509;256;2127;-64
2022/04/10 08:33:03;;;;;;;;;;;22.00;27.60;;;;;;464549;256;1104;-64
2022/04/10 08:35:03;;;;;;;;;;;22.00;27.50;;;;;;464424;257;1459;-64
2022/04/10 08:37:05;;;;;;;;;;;22.00;27.60;;;;;;464490;256;1218;-64
2022/04/10 08:39:07;;;;;;;;;;;21.90;27.60;;;;;;464524;256;1139;-64
2022/04/10 08:41:08;;;;;;;;;;;21.80;27.60;;;;;;464680;256;1120;-64
2022/04/10 08:43:09;;;;;;;;;;;21.90;27.50;;;;;;464593;256;1080;-64
2022/04/10 08:45:10;;;;;;;;;;;21.90;27.50;;;;;;464551;256;1336;-64
2022/04/10 08:47:14;;;;;;;;;;;22.00;27.40;;;;;;464510;256;1083;-64
2022/04/10 08:49:13;;;;;;;;;;;22.00;27.50;;;;;;464456;256;1375;-65
2022/04/10 08:51:15;;;;;;;;;;;21.90;27.40;;;;;;464566;256;2143;-64
2022/04/10 08:53:16;;;;;;;;;;;21.90;27.50;;;;;;464473;256;1055;-64
2022/04/10 08:55:18;;;;;;;;;;;21.90;27.60;;;;;;464533;256;1146;-64
2022/04/10 08:57:19;;;;;;;;;;;21.80;27.50;;;;;;464492;257;1264;-64
2022/04/10 08:59:20;;;;;;;;;;;21.90;27.40;;;;;;464589;256;1046;-64
2022/04/10 09:01:22;;;;;;;;;;;21.90;27.50;;;;;;464473;256;1351;-63
2022/04/10 09:03:23;;;;;;;;;;;21.90;27.50;;;;;;464521;256;1006;-64
2022/04/10 09:05:24;;;;;;;;;;;21.90;27.40;;;;;;464605;256;1049;-64
2022/04/10 09:07:25;;;;;;;;;;;21.90;27.40;;;;;;464480;256;1176;-64
2022/04/10 09:09:27;;;;;;;;;;;22.00;27.40;;;;;;464524;256;1270;-65
2022/04/10 09:11:28;;;;;;;;;;;21.90;27.40;;;;;;464518;256;2210;-64
2022/04/10 09:13:29;;;;;;;;;;;22.00;27.30;;;;;;464504;256;1127;-64
2022/04/10 09:15:31;;;;;;;;;;;22.00;27.30;;;;;;464510;256;1127;-64
2022/04/10 09:17:32;;;;;;;;;;;21.90;27.30;;;;;;464515;256;1162;-64
2022/04/10 09:19:33;;;;;;;;;;;22.00;27.30;;;;;;464506;256;1238;-64
2022/04/10 09:21:35;;;;;;;;;;;21.90;27.20;;;;;;464451;256;1316;-64
2022/04/10 09:23:36;;;;;;;;;;;21.90;27.20;;;;;;464561;256;1051;-64
2022/04/10 09:25:37;;;;;;;;;;;22.00;27.20;;;;;;464469;254;1276;-64
2022/04/10 09:27:39;;;;;;;;;;;22.00;27.10;;;;;;464585;256;1005;-64
2022/04/10 09:29:40;;;;;;;;;;;22.00;27.00;;;;;;464528;256;986;-64
2022/04/10 09:31:41;;;;;;;;;;;22.00;27.10;;;;;;464450;256;2218;-64
2022/04/10 09:33:43;;;;;;;;;;;22.00;27.10;;;;;;464548;256;985;-63
2022/04/10 09:35:44;;;;;;;;;;;21.90;27.10;;;;;;464516;256;1071;-64
2022/04/10 09:37:45;;;;;;;;;;;21.90;27.10;;;;;;464503;256;1240;-64
2022/04/10 09:39:47;;;;;;;;;;;21.90;27.10;;;;;;464543;256;1054;-64
2022/04/10 09:41:48;;;;;;;;;;;21.90;27.10;;;;;;464488;256;1180;-64
2022/04/10 09:43:49;;;;;;;;;;;22.00;26.90;;;;;;464524;256;1020;-64
2022/04/10 09:45:51;;;;;;;;;;;21.90;26.90;;;;;;464538;256;1071;-64
2022/04/10 09:47:52;;;;;;;;;;;21.90;27.00;;;;;;464428;256;1229;-64
2022/04/10 09:49:53;;;;;;;;;;;21.90;27.00;;;;;;464549;256;1077;-64
2022/04/10 09:51:55;;;;;;;;;;;22.00;26.90;;;;;;464464;256;2211;-64
2022/04/10 09:53:56;;;;;;;;;;;21.90;26.90;;;;;;464502;256;1270;-64
2022/04/10 09:55:57;;;;;;;;;;;21.90;26.90;;;;;;464478;256;1241;-64
2022/04/10 09:57:58;;;;;;;;;;;22.00;26.80;;;;;;464474;256;1138;-64
2022/04/10 10:00:00;;;;;;;;;;;21.90;26.90;;;;;;464598;256;1075;-64
2022/04/10 10:02:01;;;;;;;;;;;21.90;26.90;;;;;;464449;256;1164;-64
2022/04/10 10:04:03;;;;;;;;;;;21.90;26.90;;;;;;464537;256;1229;-64
2022/04/10 10:06:04;;;;;;;;;;;21.80;26.90;;;;;;464446;256;1278;-64
2022/04/10 10:08:05;;;;;;;;;;;22.00;26.70;;;;;;464540;256;1234;-64
2022/04/10 10:10:06;;;;;;;;;;;21.90;26.80;;;;;;464585;256;986;-64
2022/04/10 10:12:08;;;;;;;;;;;21.80;26.80;;;;;;464560;256;2202;-64
2022/04/10 10:14:09;;;;;;;;;;;21.90;26.90;;;;;;464539;256;990;-64
2022/04/10 10:16:10;;;;;;;;;;;21.90;26.90;;;;;;464473;256;1334;-64
2022/04/10 10:18:12;;;;;;;;;;;21.90;26.90;;;;;;464533;256;1089;-64
2022/04/10 10:20:13;;;;;;;;;;;21.90;27.00;;;;;;464528;256;1063;-64
2022/04/10 10:22:15;;;;;;;;;;;21.90;27.10;;;;;;464526;256;1236;-64
2022/04/10 10:24:16;;;;;;;;;;;21.90;27.20;;;;;;464513;256;1397;-64
2022/04/10 10:26:17;;;;;;;;;;;21.90;27.10;;;;;;464519;256;1216;-64
2022/04/10 10:28:18;;;;;;;;;;;21.80;27.20;;;;;;464454;256;1166;-64
2022/04/10 10:30:20;;;;;;;;;;;21.80;27.20;;;;;;464488;256;1136;-64
2022/04/10 10:32:21;;;;;;;;;;;22.00;27.10;;;;;;464470;256;2202;-64
2022/04/10 10:34:22;;;;;;;;;;;21.90;27.20;;;;;;464754;256;1097;-64
2022/04/10 10:36:24;;;;;;;;;;;21.90;27.20;;;;;;464480;256;1300;-64
2022/04/10 10:38:25;;;;;;;;;;;21.90;27.20;;;;;;464572;256;1059;-64
2022/04/10 10:40:27;;;;;;;;;;;21.90;27.30;;;;;;464515;256;1054;-64
2022/04/10 10:42:28;;;;;;;;;;;21.90;27.20;;;;;;464512;256;1163;-64
2022/04/10 10:44:29;;;;;;;;;;;21.90;27.20;;;;;;464522;256;1128;-64
2022/04/10 10:46:32;;;;;;;;;;;21.90;27.10;;;;;;464634;256;1357;-64
2022/04/10 10:48:32;;;;;;;;;;;21.90;27.10;;;;;;464458;257;1399;-64
2022/04/10 10:50:33;;;;;;;;;;;22.00;27.10;;;;;;464524;256;1007;-64
2022/04/10 10:52:35;;;;;;;;;;;21.90;27.10;;;;;;464455;256;2206;-64
2022/04/10 10:54:36;;;;;;;;;;;21.90;27.10;;;;;;464599;256;1445;-64
2022/04/10 10:56:37;;;;;;;;;;;21.90;27.00;;;;;;464412;256;1387;-64
2022/04/10 10:58:40;;;;;;;;;;;21.90;27.00;;;;;;464516;256;1097;-64
2022/04/10 11:00:40;;;;;;;;;;;21.90;26.90;;;;;;464470;257;1458;-64
2022/04/10 11:02:42;;;;;;;;;;;21.90;26.90;;;;;;464401;256;1242;-64
2022/04/10 11:04:43;;;;;;;;;;;21.90;26.90;;;;;;464490;256;978;-64
2022/04/10 11:06:44;;;;;;;;;;;21.90;26.90;;;;;;464450;256;1283;-64
2022/04/10 11:08:46;;;;;;;;;;;21.90;26.90;;;;;;464493;256;1056;-64
2022/04/10 11:10:47;;;;;;;;;;;21.90;27.00;;;;;;464532;256;1114;-64
2022/04/10 11:12:48;;;;;;;;;;;21.90;27.00;;;;;;464428;256;2189;-64
2022/04/10 11:14:51;;;;;;;;;;;21.90;27.10;;;;;;464522;256;1011;-64
2022/04/10 11:16:52;;;;;;;;;;;21.80;27.20;;;;;;464595;256;1235;-64
2022/04/10 11:18:56;;;;;;;;;;;21.80;27.30;;;;;;464491;256;998;-63
2022/04/10 11:20:55;;;;;;;;;;;21.90;27.30;;;;;;464274;257;1567;-64
2022/04/10 11:22:57;;;;;;;;;;;21.90;27.40;;;;;;464498;256;1055;-64
2022/04/10 11:24:58;;;;;;;;;;;21.90;27.50;;;;;;464475;256;1429;-64
2022/04/10 11:26:59;;;;;;;;;;;21.80;27.50;;;;;;464464;256;1243;-64
2022/04/10 11:29:00;;;;;;;;;;;21.90;27.40;;;;;;464552;256;1077;-64
2022/04/10 11:31:02;;;;;;;;;;;21.90;27.40;;;;;;464490;256;1222;-65
2022/04/10 11:33:03;;;;;;;;;;;21.80;27.40;;;;;;464531;256;2214;-64
2022/04/10 11:35:04;;;;;;;;;;;21.80;27.30;;;;;;464506;256;1060;-64
2022/04/10 11:37:06;;;;;;;;;;;21.80;27.30;;;;;;464489;256;1130;-64
2022/04/10 11:39:07;;;;;;;;;;;21.90;27.20;;;;;;464539;256;1126;-64
2022/04/10 11:41:08;;;;;;;;;;;21.80;27.40;;;;;;464482;256;1157;-64
2022/04/10 11:43:11;;;;;;;;;;;21.90;27.30;;;;;;464573;256;1197;-64
2022/04/10 11:45:11;;;;;;;;;;;21.90;27.30;;;;;;464463;257;1417;-64
2022/04/10 11:47:12;;;;;;;;;;;21.90;27.30;;;;;;464439;256;1126;-64
2022/04/10 11:49:14;;;;;;;;;;;21.80;27.30;;;;;;464521;256;1190;-64
2022/04/10 11:51:15;;;;;;;;;;;21.90;27.30;;;;;;464466;256;1182;-64
2022/04/10 11:53:16;;;;;;;;;;;21.90;27.20;;;;;;464496;256;2197;-64
2022/04/10 11:55:18;;;;;;;;;;;22.00;27.20;;;;;;464513;256;1093;-64
2022/04/10 11:57:19;;;;;;;;;;;22.00;27.10;;;;;;464420;256;1431;-64
2022/04/10 11:59:20;;;;;;;;;;;22.00;27.20;;;;;;464572;256;1064;-64
2022/04/10 12:01:22;;;;;;;;;;;21.90;27.20;;;;;;464518;256;1241;-64
2022/04/10 12:03:23;;;;;;;;;;;22.00;27.10;;;;;;464505;256;1185;-64